M I D A S
Marine Information and Data Acquisition System
Tripno 2000 of the Zeeleeuw from 2010-12-07 07:11:42 to 2010-12-07 15:12:22
Back to CruiseResearch ActivitiesStationsMapUnderway DataData graphs

EquipmentUnitsComment
TimeDGPSUTC
LatitudeDGPSDM.mWGS84
LongitudeDGPSDM.mWGS84
HeadingGyrodeg 
SOGDGPSknotsSpeed over ground
COGDGPSdegCourse over ground
DepthEcho soundermeters200 kHz
Missing or incorrect values are displayed as -999
Navigation data collected by the RV Zeeleeuw from 2010-12-07 07:20:27 to 2010-12-07 15:10:41
Time Latitude Longitude Heading SOG COG Depth
2010-12-07 07:21:32 51°13.659 2°55.958 107.5 -999 237 6.4
2010-12-07 07:22:35 51°13.673 2°55.908 105.5 3.9 291 -999
2010-12-07 07:23:36 51°13.688 2°55.799 87.5 4 276 -999
2010-12-07 07:24:34 51°13.685 2°55.736 53.5 0.4 313 11.3
2010-12-07 07:25:33 51°13.7 2°55.732 1.8 1.5 349 12.1
2010-12-07 07:26:32 51°13.734 2°55.704 329.7 3.3 329 11
2010-12-07 07:27:32 51°13.802 2°55.644 333.5 4.6 333 8.9
2010-12-07 07:28:32 51°13.893 2°55.575 336.8 6.3 338 9.9
2010-12-07 07:29:36 51°13.998 2°55.508 337.6 6.4 339 -999
2010-12-07 07:30:36 51°14.096 2°55.44 335.1 6.4 335 -999
2010-12-07 07:31:36 51°14.191 2°55.366 329.9 6.3 332 -999
2010-12-07 07:32:36 51°14.28 2°55.273 324.6 6.4 326 -999
2010-12-07 07:33:35 51°14.37 2°55.176 326.4 6.9 328 9.4
2010-12-07 07:34:34 51°14.472 2°55.071 326.1 8.1 326 -999
2010-12-07 07:35:34 51°14.584 2°54.942 325.3 8.6 320 10.7
2010-12-07 07:36:32 51°14.682 2°54.778 308.1 9.1 297 10.4
2010-12-07 07:37:32 51°14.676 2°54.535 246.9 10.1 245 9.1
2010-12-07 07:38:32 51°14.562 2°54.308 228.2 11.6 234 8.9
2010-12-07 07:39:32 51°14.448 2°54.05 233.1 12.1 235 8.7
2010-12-07 07:40:32 51°14.332 2°53.787 232.7 12.2 234 8.3
2010-12-07 07:41:32 51°14.213 2°53.52 232.7 12.4 235 8.6
2010-12-07 07:42:32 51°14.093 2°53.252 232.7 12.4 234 8.8
2010-12-07 07:43:32 51°13.978 2°52.977 237 12.5 239 9
2010-12-07 07:44:32 51°13.868 2°52.693 237.5 12.6 239 9.2
2010-12-07 07:45:32 51°13.76 2°52.408 239.5 12.6 242 9.4
2010-12-07 07:46:32 51°13.664 2°52.112 242.3 12.6 242 9.3
2010-12-07 07:47:32 51°13.568 2°51.822 242 11.4 243 9.6
2010-12-07 07:48:32 51°13.497 2°51.609 239.6 7.4 241 9.8
2010-12-07 07:49:32 51°13.441 2°51.465 239.4 5.4 240 9.9
2010-12-07 07:50:32 51°13.415 2°51.394 235.9 2.2 236 9.9
2010-12-07 07:51:32 51°13.396 2°51.346 231.8 2.1 236 10
2010-12-07 07:52:32 51°13.377 2°51.298 230.4 2.1 235 9.9
2010-12-07 07:53:32 51°13.359 2°51.253 229.4 2 239 10.1
2010-12-07 07:54:32 51°13.341 2°51.208 228.7 2 238 10.2
2010-12-07 07:55:32 51°13.324 2°51.164 227.6 2 241 10.2
2010-12-07 07:56:32 51°13.3 2°51.117 212.1 2.9 223 10.4
2010-12-07 07:57:32 51°13.242 2°51.085 165.3 4.7 185 10.1
2010-12-07 07:58:32 51°13.152 2°51.086 156.8 5.5 177 9.9
2010-12-07 07:59:32 51°13.066 2°51.07 175.5 5 197 9.4
2010-12-07 08:00:32 51°12.995 2°51.025 187 4.3 205 9.2
2010-12-07 08:01:32 51°12.935 2°50.971 198.7 4 215 9.1
2010-12-07 08:02:32 51°12.884 2°50.903 209.8 4 223 8.8
2010-12-07 08:03:32 51°12.833 2°50.833 213.5 4.2 224 9
2010-12-07 08:04:32 51°12.789 2°50.746 232.1 4.2 239 8.8
2010-12-07 08:05:32 51°12.751 2°50.647 237.3 4.4 240 8.7
2010-12-07 08:06:32 51°12.711 2°50.547 233.7 4.5 238 8.7
2010-12-07 08:07:32 51°12.669 2°50.449 231.8 4.4 233 9
2010-12-07 08:08:32 51°12.626 2°50.352 230.5 4.5 233 8.7
2010-12-07 08:09:32 51°12.581 2°50.256 229.6 4.4 234 8.7
2010-12-07 08:10:32 51°12.537 2°50.16 229.5 4.4 231 8.8
2010-12-07 08:11:32 51°12.493 2°50.064 229.4 4.4 232 8.6
2010-12-07 08:12:32 51°12.448 2°49.97 229.2 4.4 235 8.6
2010-12-07 08:13:32 51°12.405 2°49.875 233.1 4.4 237 8.6
2010-12-07 08:14:32 51°12.367 2°49.776 239.9 4.4 237 8.7
2010-12-07 08:15:32 51°12.333 2°49.674 239.5 4.3 242 8.5
2010-12-07 08:16:32 51°12.297 2°49.575 239.6 4.3 242 8.5
2010-12-07 08:17:32 51°12.261 2°49.475 238.5 4.3 240 8.4
2010-12-07 08:18:32 51°12.225 2°49.375 238.9 4.3 238 8.4
2010-12-07 08:19:32 51°12.189 2°49.275 238.9 4.3 240 8.5
2010-12-07 08:20:32 51°12.152 2°49.176 238.9 4.4 239 8.5
2010-12-07 08:21:32 51°12.116 2°49.075 238.6 4.4 240 8.5
2010-12-07 08:22:32 51°12.08 2°48.976 238.1 4.4 239 8.5
2010-12-07 08:23:32 51°12.043 2°48.877 237.7 4.3 240 8.5
2010-12-07 08:24:32 51°12.006 2°48.778 237.9 4.4 238 8.4
2010-12-07 08:25:32 51°11.969 2°48.68 237.9 4.3 241 8.5
2010-12-07 08:26:32 51°11.932 2°48.581 238.4 4.3 240 8.4
2010-12-07 08:27:32 51°11.897 2°48.48 242.7 4.3 244 8.3
2010-12-07 08:28:32 51°11.867 2°48.376 249.5 4.3 248 8.4
2010-12-07 08:29:32 51°11.844 2°48.269 256.1 4.2 256 8.4
2010-12-07 08:30:32 51°11.824 2°48.162 256.7 4.2 253 8.5
2010-12-07 08:31:32 51°11.804 2°48.055 259.7 4.2 257 8.3
2010-12-07 08:32:32 51°11.789 2°47.946 264.3 4.2 258 8.6
2010-12-07 08:33:32 51°11.775 2°47.837 264.4 4.2 257 8.6
2010-12-07 08:34:32 51°11.76 2°47.727 263 4.2 258 8.6
2010-12-07 08:35:32 51°11.756 2°47.619 283.2 3.9 273 9
2010-12-07 08:36:32 51°11.758 2°47.524 283.2 3.5 270 9.1
2010-12-07 08:37:32 51°11.756 2°47.436 282.3 3.2 268 9.4
2010-12-07 08:38:32 51°11.757 2°47.351 290.3 3.1 272 9.6
2010-12-07 08:39:32 51°11.766 2°47.271 308.5 3 287 9.9
2010-12-07 08:40:32 51°11.785 2°47.202 325.3 2.6 297 10.6
2010-12-07 08:41:32 51°11.827 2°47.163 20.2 3.8 14 11
2010-12-07 08:42:32 51°11.849 2°47.224 71.8 1.8 84 10.9
2010-12-07 08:43:32 51°11.846 2°47.256 77.1 0.8 110 11
2010-12-07 08:44:32 51°11.829 2°47.296 110.7 3.3 140 10.7
2010-12-07 08:45:32 51°11.75 2°47.312 181.6 6.5 199 9.6
2010-12-07 08:46:32 51°11.678 2°47.151 252.4 9.4 252 9.3
2010-12-07 08:47:32 51°11.616 2°46.856 251.2 13.3 252 9.5
2010-12-07 08:48:32 51°11.544 2°46.502 251.5 14.4 250 9.7
2010-12-07 08:49:32 51°11.456 2°46.143 247.3 14.6 248 10
2010-12-07 08:50:32 51°11.348 2°45.795 241.1 14.8 243 9.8
2010-12-07 08:51:32 51°11.23 2°45.455 238 14.6 241 9.6
2010-12-07 08:52:32 51°11.11 2°45.12 237.7 14.4 241 9.3
2010-12-07 08:53:32 51°10.991 2°44.791 236.4 14.3 237 8.9
2010-12-07 08:54:32 51°10.864 2°44.475 237 14.2 240 8.7
2010-12-07 08:55:32 51°10.745 2°44.153 237.8 14 239 8.4
2010-12-07 08:56:32 51°10.625 2°43.834 237.6 14.1 240 8.1
2010-12-07 08:57:32 51°10.505 2°43.517 236.9 14 239 8.1
2010-12-07 08:58:32 51°10.386 2°43.224 232.9 11.5 235 8.4
2010-12-07 08:59:32 51°10.3 2°43.025 236.6 7.8 238 8.5
2010-12-07 09:00:32 51°10.24 2°42.89 224 5 228 8.7
2010-12-07 09:01:32 51°10.199 2°42.831 203.3 1.8 223 8.8
2010-12-07 09:02:32 51°10.191 2°42.805 202.9 0.8 257 8.7
2010-12-07 09:03:32 51°10.187 2°42.785 212.7 0.8 247 4.9
2010-12-07 09:04:32 51°10.181 2°42.763 218.4 1 255 8.7
2010-12-07 09:05:32 51°10.173 2°42.742 222.6 1 245 8.8
2010-12-07 09:06:32 51°10.165 2°42.72 224.4 1 235 8.9
2010-12-07 09:07:32 51°10.139 2°42.66 230.6 4.5 236 8.8
2010-12-07 09:08:32 51°10.106 2°42.471 264.3 9.9 267 8.5
2010-12-07 09:09:32 51°10.16 2°42.183 288.6 12.4 284 8.4
2010-12-07 09:10:32 51°10.144 2°41.84 252.7 13.5 251 8.5
2010-12-07 09:11:32 51°10.014 2°41.55 226.3 13.6 234 8.6
2010-12-07 09:12:32 51°9.96 2°41.21 270.8 13.5 269 8.6
2010-12-07 09:13:32 51°9.981 2°40.85 280.5 13.8 280 9.3
2010-12-07 09:14:32 51°10.015 2°40.487 280 13.9 277 10.1
2010-12-07 09:15:32 51°10.05 2°40.123 283.7 13.9 280 10.9
2010-12-07 09:16:32 51°10.099 2°39.763 285.3 13.9 282 11.9
2010-12-07 09:17:33 51°10.149 2°39.396 284.7 14 282 13.7
2010-12-07 09:18:32 51°10.151 2°39.036 258.9 14.1 258 14.8
2010-12-07 09:19:32 51°10.065 2°38.689 238.8 13.9 238 15.1
2010-12-07 09:20:32 51°9.96 2°38.523 193.2 6.6 204 15
2010-12-07 09:21:32 51°9.865 2°38.46 194.6 5.9 206 14.1
2010-12-07 09:22:32 51°9.796 2°38.383 211.3 4.6 221 13.7
2010-12-07 09:23:32 51°9.747 2°38.3 226.5 4.2 234 13.6
2010-12-07 09:24:32 51°9.711 2°38.207 234.2 4.1 238 13.5
2010-12-07 09:25:32 51°9.677 2°38.115 234.5 4 240 13.4
2010-12-07 09:26:32 51°9.646 2°38.024 237.6 3.9 242 13.4
2010-12-07 09:27:32 51°9.617 2°37.932 240.3 3.9 245 13.6
2010-12-07 09:28:32 51°9.588 2°37.838 240.1 4 244 13.5
2010-12-07 09:29:32 51°9.556 2°37.739 239.7 4.4 240 13.3
2010-12-07 09:30:32 51°9.523 2°37.634 240.5 4.4 242 13.5
2010-12-07 09:31:32 51°9.49 2°37.528 239.7 4.5 242 13.5
2010-12-07 09:32:32 51°9.457 2°37.425 239.7 4.3 245 13.3
2010-12-07 09:33:32 51°9.425 2°37.324 240.5 4.3 243 13.3
2010-12-07 09:34:32 51°9.396 2°37.221 246.1 4.3 247 13.6
2010-12-07 09:35:32 51°9.37 2°37.117 249 4.2 250 13.9
2010-12-07 09:36:32 51°9.346 2°37.012 251 4.2 247 14.1
2010-12-07 09:37:32 51°9.323 2°36.907 250.5 4.2 249 14.5
2010-12-07 09:38:32 51°9.3 2°36.802 249.9 4.2 251 14.7
2010-12-07 09:39:32 51°9.277 2°36.697 251.6 4.2 253 15.1
2010-12-07 09:40:32 51°9.262 2°36.59 265.8 4.1 260 15.4
2010-12-07 09:41:32 51°9.252 2°36.482 268.1 4.2 263 15.8
2010-12-07 09:42:32 51°9.244 2°36.373 269 4.1 262 16
2010-12-07 09:43:32 51°9.237 2°36.263 269.5 4.2 264 16.2
2010-12-07 09:44:32 51°9.229 2°36.153 269.3 4.2 264 16.4
2010-12-07 09:45:32 51°9.222 2°36.042 269.6 4.2 263 16.8
2010-12-07 09:46:32 51°9.214 2°35.931 269.8 4.2 266 16.5
2010-12-07 09:47:32 51°9.207 2°35.822 270.1 4.1 268 16.8
2010-12-07 09:48:32 51°9.199 2°35.713 269.6 4.1 264 17
2010-12-07 09:49:32 51°9.192 2°35.605 269 4.1 266 16.9
2010-12-07 09:50:32 51°9.184 2°35.498 269.2 4 266 17.1
2010-12-07 09:51:32 51°9.176 2°35.392 268.8 4 264 17.2
2010-12-07 09:52:32 51°9.169 2°35.286 269.4 4 264 17.2
2010-12-07 09:53:32 51°9.162 2°35.182 269 3.9 265 16.8
2010-12-07 09:54:32 51°9.154 2°35.078 269.5 4 267 17.1
2010-12-07 09:55:32 51°9.147 2°34.973 269.5 4 263 17.2
2010-12-07 09:56:32 51°9.139 2°34.867 269.2 4 260 17.6
2010-12-07 09:57:32 51°9.135 2°34.763 281.8 3.9 272 17.6
2010-12-07 09:58:32 51°9.143 2°34.663 297.1 3.7 283 17.3
2010-12-07 09:59:32 51°9.163 2°34.574 316.8 3.4 297 17.1
2010-12-07 10:00:32 51°9.192 2°34.499 322.8 3.2 304 17.1
2010-12-07 10:01:32 51°9.224 2°34.434 327.6 3 310 16.7
2010-12-07 10:02:32 51°9.258 2°34.381 337 2.9 320 17.6
2010-12-07 10:03:32 51°9.298 2°34.342 353.7 2.6 337 19
2010-12-07 10:04:32 51°9.338 2°34.327 8.1 2.4 349 19.2
2010-12-07 10:05:32 51°9.372 2°34.313 9.9 1.7 341 19.6
2010-12-07 10:06:32 51°9.393 2°34.297 13.6 1.1 325 20.1
2010-12-07 10:07:32 51°9.405 2°34.279 16.5 0.8 308 20.5
2010-12-07 10:08:32 51°9.412 2°34.262 19.4 0.7 303 20.5
2010-12-07 10:09:32 51°9.457 2°34.305 40.7 6.9 41 20.2
2010-12-07 10:10:32 51°9.589 2°34.477 39.7 11.8 40 18.7
2010-12-07 10:11:32 51°9.746 2°34.69 40 12.7 41 16.4
2010-12-07 10:12:32 51°9.905 2°34.908 40.4 12.6 42 13.1
2010-12-07 10:13:32 51°10.061 2°35.127 40 12.6 42 11.8
2010-12-07 10:14:32 51°10.215 2°35.352 43.1 12.6 44 12.1
2010-12-07 10:15:32 51°10.351 2°35.605 50.9 12.6 53 12.1
2010-12-07 10:16:32 51°10.473 2°35.876 51.9 12.6 54 12
2010-12-07 10:17:32 51°10.596 2°36.146 51.8 12.5 54 11.5
2010-12-07 10:18:32 51°10.718 2°36.415 51.6 12.5 55 11.9
2010-12-07 10:19:32 51°10.84 2°36.683 51.5 12.5 54 12.2
2010-12-07 10:20:32 51°10.963 2°36.951 51.2 12.6 53 12.6
2010-12-07 10:21:32 51°11.088 2°37.218 51.4 12.7 53 13
2010-12-07 10:22:32 51°11.211 2°37.486 51.3 12.5 54 12.9
2010-12-07 10:23:32 51°11.335 2°37.754 51.3 12.6 54 12.8
2010-12-07 10:24:32 51°11.46 2°38.024 51.2 12.6 54 12.2
2010-12-07 10:25:32 51°11.585 2°38.293 51 12.6 54 11.8
2010-12-07 10:26:32 51°11.71 2°38.561 50.9 12.6 53 11.7
2010-12-07 10:27:32 51°11.835 2°38.829 51.3 12.5 53 12
2010-12-07 10:28:32 51°11.96 2°39.096 51.2 12.6 54 12.3
2010-12-07 10:29:32 51°12.085 2°39.364 51.4 12.5 53 12.1
2010-12-07 10:30:32 51°12.21 2°39.633 51.5 12.7 53 12.2
2010-12-07 10:31:32 51°12.335 2°39.903 51.4 12.5 54 13
2010-12-07 10:32:32 51°12.46 2°40.17 51.2 12.6 54 12.9
2010-12-07 10:33:32 51°12.584 2°40.438 51.2 12.6 54 13.4
2010-12-07 10:34:32 51°12.709 2°40.705 50.9 12.7 53 13.4
2010-12-07 10:35:32 51°12.829 2°40.98 53.9 12.6 55 13.3
2010-12-07 10:36:32 51°12.947 2°41.257 53.6 12.6 56 13.8
2010-12-07 10:37:32 51°13.065 2°41.532 53.1 12.6 55 14
2010-12-07 10:38:32 51°13.184 2°41.808 53.7 12.7 57 14.1
2010-12-07 10:39:32 51°13.303 2°42.084 53 12.5 55 13.9
2010-12-07 10:40:32 51°13.423 2°42.362 53.2 12.8 56 14
2010-12-07 10:41:32 51°13.544 2°42.643 53.4 12.9 55 14
2010-12-07 10:42:32 51°13.666 2°42.923 53.3 12.8 55 14.2
2010-12-07 10:43:32 51°13.788 2°43.203 53.1 12.8 55 14.1
2010-12-07 10:44:32 51°13.912 2°43.48 53.1 12.8 55 14.3
2010-12-07 10:45:32 51°14.036 2°43.758 53.2 12.8 55 14
2010-12-07 10:46:32 51°14.158 2°44.038 55.7 12.9 57 13.6
2010-12-07 10:47:32 51°14.272 2°44.327 56 12.9 58 13.1
2010-12-07 10:48:32 51°14.385 2°44.617 56.5 12.9 58 13.2
2010-12-07 10:49:32 51°14.5 2°44.907 56.3 12.9 58 12.9
2010-12-07 10:50:32 51°14.598 2°45.212 64.9 13 66 12.5
2010-12-07 10:51:32 51°14.682 2°45.528 64.8 13 67 12.1
2010-12-07 10:52:32 51°14.768 2°45.843 64.8 12.9 67 11.5
2010-12-07 10:53:32 51°14.854 2°46.154 64.7 12.7 66 11.2
2010-12-07 10:54:32 51°14.938 2°46.463 64.7 12.8 67 11.2
2010-12-07 10:55:32 51°15.017 2°46.776 68.9 12.7 75 11.1
2010-12-07 10:56:32 51°15.064 2°47.107 75.4 12.9 79 11.2
2010-12-07 10:57:32 51°15.109 2°47.44 74.5 12.8 76 11.4
2010-12-07 10:58:31 51°15.154 2°47.768 74.7 12.8 78 11.9
2010-12-07 10:59:32 51°15.201 2°48.106 74.8 12.8 77 13.3
2010-12-07 11:00:32 51°15.248 2°48.439 74 12.9 79 14.4
2010-12-07 11:01:32 51°15.287 2°48.776 78.4 13 81 15
2010-12-07 11:02:32 51°15.318 2°49.12 79.7 13.2 82 14.7
2010-12-07 11:03:32 51°15.352 2°49.468 79.9 13.2 80 14.9
2010-12-07 11:04:32 51°15.423 2°49.794 60.3 13.2 61 14.7
2010-12-07 11:05:32 51°15.537 2°50.09 56.9 13.1 58 14.8
2010-12-07 11:06:32 51°15.649 2°50.388 58.5 13 59 14.4
2010-12-07 11:07:31 51°15.771 2°50.664 49.1 12.9 49 14.9
2010-12-07 11:08:32 51°15.918 2°50.924 43.7 12.9 45 15.2
2010-12-07 11:09:32 51°16.074 2°51.16 41.1 13 42 14.7
2010-12-07 11:10:32 51°16.24 2°51.378 38.4 12.9 39 13.6
2010-12-07 11:11:32 51°16.41 2°51.585 33.3 12.6 32 12.7
2010-12-07 11:12:32 51°16.587 2°51.782 33.8 13 35 13.3
2010-12-07 11:13:32 51°16.772 2°51.954 24.4 12.9 24 12.8
2010-12-07 11:14:32 51°16.97 2°52.093 23 13.1 25 12.9
2010-12-07 11:15:32 51°17.167 2°52.234 23.6 13.1 25 13.5
2010-12-07 11:16:31 51°17.363 2°52.378 23.8 13.2 25 12.4
2010-12-07 11:17:32 51°17.565 2°52.529 24 13.2 26 12.4
2010-12-07 11:18:32 51°17.759 2°52.686 28.8 13 29 12.6
2010-12-07 11:19:32 51°17.947 2°52.861 29.6 13.1 30 12.4
2010-12-07 11:20:32 51°18.136 2°53.037 29.8 13.1 31 12.6
2010-12-07 11:21:32 51°18.323 2°53.218 33.3 13.1 33 13
2010-12-07 11:22:32 51°18.483 2°53.454 48 13.1 51 13.4
2010-12-07 11:23:32 51°18.588 2°53.761 65.6 13.4 65 13.4
2010-12-07 11:24:32 51°18.665 2°54.097 68.3 13.6 70 13.3
2010-12-07 11:25:31 51°18.745 2°54.428 67.3 13.8 68 13.3
2010-12-07 11:26:32 51°18.832 2°54.773 66 13.8 68 13.1
2010-12-07 11:27:31 51°18.917 2°55.108 65.9 13.9 69 13.5
2010-12-07 11:28:32 51°19.006 2°55.454 65.6 13.8 68 13.2
2010-12-07 11:29:32 51°19.095 2°55.793 65.5 13.8 68 13.2
2010-12-07 11:30:32 51°19.183 2°56.135 65.4 14 68 13.1
2010-12-07 11:31:32 51°19.273 2°56.475 65.2 13.9 67 13.1
2010-12-07 11:32:32 51°19.362 2°56.815 65.3 13.8 66 13
2010-12-07 11:33:32 51°19.451 2°57.153 65.2 13.8 66 12.9
2010-12-07 11:34:32 51°19.542 2°57.492 65.6 13.9 68 12.8
2010-12-07 11:35:32 51°19.634 2°57.831 65.4 13.9 66 12.8
2010-12-07 11:36:32 51°19.724 2°58.17 65.3 13.9 68 12.8
2010-12-07 11:37:32 51°19.816 2°58.509 65.4 14 66 12.5
2010-12-07 11:38:32 51°19.907 2°58.851 65.6 14.1 66 12.5
2010-12-07 11:39:32 51°19.992 2°59.202 68.7 14.2 70 12.5
2010-12-07 11:40:32 51°20.072 2°59.558 68.6 14.2 72 12.5
2010-12-07 11:41:32 51°20.15 2°59.911 69 14.1 72 12.5
2010-12-07 11:42:32 51°20.23 3°0.262 68.1 14 70 12.1
2010-12-07 11:43:32 51°20.31 3°0.611 68.3 14 70 12.3
2010-12-07 11:44:32 51°20.39 3°0.963 68.3 14.1 70 12.5
2010-12-07 11:45:32 51°20.471 3°1.315 68.1 14.1 70 12.1
2010-12-07 11:46:32 51°20.554 3°1.668 67.9 14.2 68 12
2010-12-07 11:47:32 51°20.637 3°2.022 68.4 14.2 70 12.1
2010-12-07 11:48:32 51°20.721 3°2.378 68 14.4 69 12.2
2010-12-07 11:49:32 51°20.806 3°2.736 68 14.5 70 12.5
2010-12-07 11:50:32 51°20.892 3°3.095 68.5 14.5 69 12.5
2010-12-07 11:51:32 51°20.978 3°3.456 68.5 14.6 69 12.6
2010-12-07 11:52:32 51°21.065 3°3.818 68.3 14.5 69 12.7
2010-12-07 11:53:32 51°21.15 3°4.178 68.7 14.4 67 13
2010-12-07 11:54:32 51°21.236 3°4.536 68.1 14.4 68 13.2
2010-12-07 11:55:32 51°21.323 3°4.894 68.4 14.5 69 13
2010-12-07 11:56:32 51°21.409 3°5.254 68.6 14.4 70 13.1
2010-12-07 11:57:32 51°21.497 3°5.612 68.3 14.4 70 13.2
2010-12-07 11:58:32 51°21.585 3°5.972 68.4 14.6 70 13.4
2010-12-07 11:59:32 51°21.673 3°6.334 68.2 14.6 69 13.7
2010-12-07 12:00:32 51°21.763 3°6.695 68.1 14.7 68 13.9
2010-12-07 12:01:32 51°21.851 3°7.06 68.4 14.8 69 14.5
2010-12-07 12:02:32 51°21.94 3°7.425 68.6 14.8 68 14.5
2010-12-07 12:03:32 51°22.03 3°7.791 68.6 14.8 69 14.5
2010-12-07 12:04:32 51°22.119 3°8.161 68.3 15 71 14.8
2010-12-07 12:05:32 51°22.208 3°8.535 68.1 15.1 69 15.1
2010-12-07 12:06:32 51°22.297 3°8.912 68.2 15.1 68 15.2
2010-12-07 12:07:32 51°22.387 3°9.29 68.3 15.3 69 15.7
2010-12-07 12:08:32 51°22.43 3°9.674 96.2 14.7 94 16.4
2010-12-07 12:09:32 51°22.395 3°10.065 103.4 14.9 99 16.5
2010-12-07 12:10:32 51°22.368 3°10.462 95.9 15.1 92 20.8
2010-12-07 12:11:32 51°22.369 3°10.831 93.3 11.4 88 19.3
2010-12-07 12:12:32 51°22.369 3°11.057 107 6.7 92 19.2
2010-12-07 12:13:32 51°22.391 3°11.222 57.2 6.2 64 18.9
2010-12-07 12:14:32 51°22.428 3°11.324 39.3 2.5 73 19
2010-12-07 12:15:33 51°22.437 3°11.387 19.3 2.3 79 18.8
2010-12-07 12:16:32 51°22.445 3°11.454 1.5 2.8 80 19
2010-12-07 12:17:32 51°22.453 3°11.523 351.5 2.7 79 18.8
2010-12-07 12:18:32 51°22.461 3°11.592 341.2 2.7 77 18.8
2010-12-07 12:19:32 51°22.47 3°11.662 334.1 2.6 79 18.9
2010-12-07 12:20:32 51°22.479 3°11.731 332.6 2.7 73 18.7
2010-12-07 12:21:32 51°22.542 3°11.734 309.2 6.5 329 18.1
2010-12-07 12:22:32 51°22.646 3°11.588 299.5 10.3 313 17.7
2010-12-07 12:23:32 51°22.763 3°11.363 299.8 11.2 311 16.6
2010-12-07 12:24:32 51°22.883 3°11.136 300.1 11.3 311 16.6
2010-12-07 12:25:32 51°23.006 3°10.907 299.5 11.4 311 16.2
2010-12-07 12:26:32 51°23.13 3°10.675 300.6 11.5 310 16.1
2010-12-07 12:27:32 51°23.247 3°10.467 299.8 8 314 16.2
2010-12-07 12:28:32 51°23.301 3°10.36 281.5 4.1 304 16.7
2010-12-07 12:29:32 51°23.363 3°10.301 315.1 4.6 352 16.7
2010-12-07 12:30:32 51°23.445 3°10.326 350 5.3 21 17
2010-12-07 12:31:32 51°23.524 3°10.393 3 5.3 32 16.8
2010-12-07 12:32:32 51°23.593 3°10.48 18.2 5.4 44 16.8
2010-12-07 12:33:32 51°23.65 3°10.59 32.7 5.5 55 16.8
2010-12-07 12:34:32 51°23.703 3°10.702 32.9 5.1 55 17.1
2010-12-07 12:35:32 51°23.748 3°10.813 35.7 4.9 58 17.3
2010-12-07 12:36:32 51°23.789 3°10.926 36.1 4.8 59 17.8
2010-12-07 12:37:32 51°23.833 3°11.033 32 4.8 55 17.8
2010-12-07 12:38:32 51°23.874 3°11.142 36.5 4.8 61 18.2
2010-12-07 12:39:32 51°23.916 3°11.251 36 4.8 60 18.6
2010-12-07 12:40:32 51°23.957 3°11.359 34.2 4.9 60 19
2010-12-07 12:41:32 51°23.994 3°11.475 50.4 5 66 19.3
2010-12-07 12:42:32 51°24.024 3°11.601 67 5.1 74 19.7
2010-12-07 12:43:32 51°24.041 3°11.734 84.2 5.1 81 19.6
2010-12-07 12:44:32 51°24.047 3°11.868 103.2 5 90 19.6
2010-12-07 12:45:32 51°24.043 3°11.995 116.8 4.6 95 19.1
2010-12-07 12:46:32 51°24.035 3°12.113 126.4 4.4 96 19.4
2010-12-07 12:47:32 51°24.025 3°12.222 132.9 4 100 18.6
2010-12-07 12:48:32 51°24.014 3°12.327 136.1 4 98 17.7
2010-12-07 12:49:32 51°24.005 3°12.432 137.1 3.9 98 17.1
2010-12-07 12:50:32 51°23.996 3°12.537 132.3 4.1 96 16.5
2010-12-07 12:51:32 51°23.991 3°12.648 119.7 4.1 92 15.8
2010-12-07 12:52:32 51°23.991 3°12.758 109.7 4.1 89 16.7
2010-12-07 12:53:32 51°23.995 3°12.869 99.6 4.2 84 16.3
2010-12-07 12:54:32 51°24.003 3°12.981 89 4.3 80 16.4
2010-12-07 12:55:32 51°24.015 3°13.094 78.7 4.3 78 16.3
2010-12-07 12:56:32 51°24.032 3°13.206 72.3 4.4 77 16.2
2010-12-07 12:57:32 51°24.05 3°13.318 72.6 4.3 78 16.2
2010-12-07 12:58:32 51°24.065 3°13.429 78.6 4.3 81 16.3
2010-12-07 12:59:32 51°24.079 3°13.54 79.4 4.3 77 16.3
2010-12-07 13:00:32 51°24.093 3°13.65 80.1 4.2 78 16.1
2010-12-07 13:01:32 51°24.107 3°13.758 81.1 4.2 74 16.2
2010-12-07 13:02:32 51°24.121 3°13.865 81.1 4.1 79 16.5
2010-12-07 13:03:32 51°24.134 3°13.973 82.3 4.1 80 16.7
2010-12-07 13:04:32 51°24.147 3°14.081 83.1 4.1 82 16.7
2010-12-07 13:05:32 51°24.158 3°14.188 82.1 4.1 78 17
2010-12-07 13:06:32 51°24.171 3°14.295 78.1 4.1 81 17.3
2010-12-07 13:07:32 51°24.184 3°14.403 77.5 4.2 84 17.6
2010-12-07 13:08:32 51°24.199 3°14.51 78.7 4.1 81 17.4
2010-12-07 13:09:32 51°24.212 3°14.616 80.8 4 82 17.5
2010-12-07 13:10:32 51°24.222 3°14.719 83.1 3.9 80 16.8
2010-12-07 13:11:32 51°24.235 3°14.822 78.7 3.9 80 17.2
2010-12-07 13:12:32 51°24.248 3°14.923 77.9 3.9 76 17.2
2010-12-07 13:13:32 51°24.259 3°15.025 81 3.8 83 17.2
2010-12-07 13:14:32 51°24.27 3°15.126 81.3 3.8 82 17
2010-12-07 13:15:32 51°24.28 3°15.224 78.9 3.7 79 17.3
2010-12-07 13:16:32 51°24.29 3°15.319 85.2 3.6 86 18.2
2010-12-07 13:17:32 51°24.292 3°15.408 110 3.1 94 17.5
2010-12-07 13:18:32 51°24.289 3°15.49 116.1 3.1 96 17.6
2010-12-07 13:19:32 51°24.284 3°15.575 114.8 3.8 97 16.1
2010-12-07 13:20:31 51°24.252 3°15.679 153.6 4.6 136 16.6
2010-12-07 13:21:32 51°24.193 3°15.734 177.9 3.6 148 16.8
2010-12-07 13:22:32 51°24.135 3°15.774 185.6 4.5 171 16.7
2010-12-07 13:23:32 51°24.075 3°15.753 225.8 2.5 202 16.8
2010-12-07 13:24:32 51°24.051 3°15.733 236.6 1.4 195 16.7
2010-12-07 13:25:32 51°24.039 3°15.725 241.3 0.4 204 16.6
2010-12-07 13:26:32 51°24.032 3°15.726 237.4 0.3 202 16.5
2010-12-07 13:27:32 51°24.013 3°15.68 244.6 4.3 243 16.4
2010-12-07 13:28:32 51°23.964 3°15.522 244.7 8.2 243 16
2010-12-07 13:29:32 51°23.893 3°15.288 245.9 10.7 247 15.6
2010-12-07 13:30:32 51°23.815 3°15.016 245.5 11.3 244 15.2
2010-12-07 13:31:32 51°23.724 3°14.753 240.8 11.3 240 15.2
2010-12-07 13:32:32 51°23.629 3°14.496 240.8 11.2 238 14.9
2010-12-07 13:33:32 51°23.536 3°14.238 241 11.1 240 14.1
2010-12-07 13:34:32 51°23.443 3°13.986 240.8 11 238 14
2010-12-07 13:35:32 51°23.353 3°13.734 241.6 10.9 243 13.8
2010-12-07 13:36:32 51°23.261 3°13.483 241.2 11 239 13.9
2010-12-07 13:37:32 51°23.169 3°13.229 241 11 238 14.8
2010-12-07 13:38:32 51°23.079 3°12.975 242.3 11 242 14.7
2010-12-07 13:39:32 51°23.058 3°12.69 266.9 11 269 14.8
2010-12-07 13:40:32 51°23.037 3°12.4 258.8 11 260 15.4
2010-12-07 13:41:32 51°23.011 3°12.108 259.7 11.2 262 15.8
2010-12-07 13:42:31 51°22.977 3°11.819 256.8 11.2 259 16.6
2010-12-07 13:43:32 51°22.938 3°11.52 254.4 11.3 257 16.5
2010-12-07 13:44:32 51°22.91 3°11.288 260.9 5.3 269 17
2010-12-07 13:45:32 51°22.912 3°11.21 250.5 1.6 255 16.9
2010-12-07 13:46:32 51°22.908 3°11.184 247.9 0.6 243 17
2010-12-07 13:47:32 51°22.909 3°11.172 255.2 0.6 273 16.8
2010-12-07 13:48:32 51°22.902 3°11.143 242.9 1.7 240 16.8
2010-12-07 13:49:31 51°22.882 3°11.098 237.9 2.3 239 17
2010-12-07 13:50:32 51°22.874 3°11.037 263.8 2.5 278 17.1
2010-12-07 13:51:32 51°22.888 3°10.971 272.8 2.8 289 17
2010-12-07 13:52:32 51°22.898 3°10.877 261.6 4.5 266 17.2
2010-12-07 13:53:32 51°22.88 3°10.731 249.8 6.2 254 17
2010-12-07 13:54:32 51°22.818 3°10.548 234.8 9.5 234 17.5
2010-12-07 13:55:32 51°22.715 3°10.3 235.4 11.8 239 18.4
2010-12-07 13:56:32 51°22.604 3°10.041 233.4 11.9 231 21.3
2010-12-07 13:57:32 51°22.471 3°9.809 223.4 12 225 17.2
2010-12-07 13:58:32 51°22.328 3°9.596 223.2 11.7 223 16.8
2010-12-07 13:59:32 51°22.186 3°9.38 223.7 11.8 224 16.4
2010-12-07 14:00:32 51°22.045 3°9.164 224.1 11.7 223 15.7
2010-12-07 14:01:32 51°21.905 3°8.942 223.8 12 226 15.1
2010-12-07 14:02:32 51°21.764 3°8.719 223.8 12 226 14.6
2010-12-07 14:03:32 51°21.624 3°8.495 224.9 11.9 224 13.7
2010-12-07 14:04:32 51°21.483 3°8.269 224.7 12 225 12.9
2010-12-07 14:05:31 51°21.343 3°8.046 224.1 11.9 227 12.1
2010-12-07 14:06:32 51°21.2 3°7.817 224.4 11.9 223 11.5
2010-12-07 14:07:32 51°21.061 3°7.598 224.4 11.5 223 11.2
2010-12-07 14:08:32 51°20.926 3°7.388 223.7 11.2 224 11
2010-12-07 14:09:31 51°20.79 3°7.183 224.6 11.4 223 11
2010-12-07 14:10:32 51°20.651 3°6.966 226 11.5 222 11.1
2010-12-07 14:11:32 51°20.512 3°6.751 223.9 11.6 224 11.1
2010-12-07 14:12:32 51°20.372 3°6.535 224.5 11.6 224 11.2
2010-12-07 14:13:32 51°20.231 3°6.312 224 12 226 11.2
2010-12-07 14:14:32 51°20.09 3°6.087 224.6 11.9 223 11
2010-12-07 14:15:32 51°19.945 3°5.862 223.6 12.3 227 11.2
2010-12-07 14:16:31 51°19.805 3°5.631 225.2 12.2 222 11.1
2010-12-07 14:17:32 51°19.661 3°5.391 224.8 12.2 226 11
2010-12-07 14:18:32 51°19.545 3°5.132 240.7 12 245 11
2010-12-07 14:19:32 51°19.463 3°4.842 244.3 11.9 245 11
2010-12-07 14:20:31 51°19.387 3°4.555 243.3 11.9 248 11
2010-12-07 14:21:32 51°19.291 3°4.277 233.2 11.8 236 11.1
2010-12-07 14:22:32 51°19.179 3°4.016 232.7 12.1 238 11
2010-12-07 14:23:31 51°19.068 3°3.755 234 12.1 234 11.1
2010-12-07 14:24:32 51°18.954 3°3.484 233.4 12.1 235 11.3
2010-12-07 14:25:32 51°18.843 3°3.216 234.4 12 236 11.4
2010-12-07 14:26:32 51°18.732 3°2.947 234.3 12.2 238 11.4
2010-12-07 14:27:31 51°18.622 3°2.685 234.5 11.9 234 11.5
2010-12-07 14:28:32 51°18.513 3°2.421 234.4 11.5 234 11.7
2010-12-07 14:29:32 51°18.404 3°2.163 234.5 11.7 238 11.6
2010-12-07 14:30:32 51°18.295 3°1.905 234.3 11.8 239 11.9
2010-12-07 14:31:32 51°18.188 3°1.645 234.6 11.8 239 12.2
2010-12-07 14:32:32 51°18.08 3°1.388 234.5 11.8 237 12.4
2010-12-07 14:33:32 51°17.973 3°1.129 234.6 11.8 236 12.2
2010-12-07 14:34:31 51°17.865 3°0.87 234.5 11.7 236 11.9
2010-12-07 14:35:32 51°17.753 3°0.6 234.4 12 234 12.4
2010-12-07 14:36:32 51°17.641 3°0.33 234 12.3 237 12.3
2010-12-07 14:37:32 51°17.529 3°0.061 233.8 12.3 235 12.6
2010-12-07 14:38:31 51°17.419 2°59.795 234.5 12.1 237 12.4
2010-12-07 14:39:32 51°17.305 2°59.52 234.5 12.3 240 12.4
2010-12-07 14:40:32 51°17.192 2°59.248 233.9 12.3 238 12.4
2010-12-07 14:41:32 51°17.078 2°58.975 234.5 12.2 236 12.4
2010-12-07 14:42:32 51°16.962 2°58.699 234.3 12.5 237 12.7
2010-12-07 14:43:32 51°16.848 2°58.423 234 12.6 239 12.7
2010-12-07 14:44:32 51°16.734 2°58.149 234.2 12.4 238 12.5
2010-12-07 14:45:32 51°16.619 2°57.874 234.5 12.4 234 12.6
2010-12-07 14:46:32 51°16.505 2°57.599 233.7 12.3 237 12.1
2010-12-07 14:47:32 51°16.39 2°57.325 234.5 12.5 235 12
2010-12-07 14:48:32 51°16.277 2°57.05 235.3 12.3 235 11.8
2010-12-07 14:49:32 51°16.164 2°56.776 234.1 12.5 237 12.1
2010-12-07 14:50:32 51°16.05 2°56.499 234 12.5 237 11.9
2010-12-07 14:51:32 51°15.929 2°56.228 232.2 12.6 235 11.8
2010-12-07 14:52:32 51°15.809 2°55.959 232.5 12.3 236 11.7
2010-12-07 14:53:32 51°15.684 2°55.702 225.4 12.3 226 11.6
2010-12-07 14:54:31 51°15.53 2°55.501 215.8 12 213 11.2
2010-12-07 14:55:32 51°15.357 2°55.325 209.5 12.5 211 11.1
2010-12-07 14:56:31 51°15.189 2°55.163 210.2 11.8 212 11.5
2010-12-07 14:57:32 51°15.026 2°54.992 211.9 11.4 213 11.8
2010-12-07 14:58:32 51°14.847 2°54.904 185.2 11.6 181 12.5
2010-12-07 14:59:32 51°14.649 2°54.948 163.4 12.9 162 14.3
2010-12-07 15:00:32 51°14.485 2°55.057 152.5 9.3 155 13.7
2010-12-07 15:01:32 51°14.359 2°55.175 143.7 7.9 146 13.2
2010-12-07 15:02:32 51°14.264 2°55.278 143.7 6.8 148 13.3
2010-12-07 15:03:31 51°14.159 2°55.386 148.2 8.2 152 13.3
2010-12-07 15:04:32 51°14.031 2°55.481 153.6 8.1 156 13.4
2010-12-07 15:05:32 51°13.929 2°55.553 154 5.6 157 13.9
2010-12-07 15:06:32 51°13.837 2°55.628 149.6 7 151 12.3
2010-12-07 15:07:32 51°13.749 2°55.733 132.6 5.9 133 12.4
2010-12-07 15:08:32 51°13.697 2°55.836 123.4 4.2 124 12.3
2010-12-07 15:09:32 51°13.67 2°55.923 109.2 3.3 111 11.3
2010-12-07 15:10:32 51°13.662 2°55.96 116.1 0.2 125 10.1